Clare, Michigan
Current Conditions -  °F | °C
As of 4:39 AM on Friday 31 Oct 2014 (Local Time) from KMOP Reporting Station
Light Rain Light Rain  
Wind Chill: 41°   Ceiling: 2700
Heat Index: 41°   Visibility: 5mi
Dew Point: 39°   Wind: 0mph
Humidity: 93%   Direction: NA
Pressure: 29.9"   Gusts: NA
Location:  43.82°N, 84.77°W
Report Text: KMOP 310839Z AUTO 00000KT 5SM -RA SCT009 BKN027 OVC039 05/04 A2990 RMK AO2 P0002 T00500040
Loading
Personal Weather Stations






























Interactive Weather Map
Tropical Storm Tracking
New forecast layout! Learn more

10-Day Weather Forecast

Advertisements
Track Severe Weather on mobile